sensor_id;sensor_type;location;lat;lon;timestamp;P1;durP1;ratioP1;P2;durP2;ratioP2
17175;SDS011;8703;48.996;9.594;2023-08-31T00:01:36;12.23;;;6.85;;
17175;SDS011;8703;48.996;9.594;2023-08-31T00:04:03;8.25;;;3.35;;
17175;SDS011;8703;48.996;9.594;2023-08-31T00:06:33;11.60;;;5.55;;
17175;SDS011;8703;48.996;9.594;2023-08-31T00:09:00;9.75;;;5.07;;
17175;SDS011;8703;48.996;9.594;2023-08-31T00:11:31;7.13;;;3.38;;
17175;SDS011;8703;48.996;9.594;2023-08-31T00:13:58;14.93;;;6.45;;
17175;SDS011;8703;48.996;9.594;2023-08-31T00:16:26;23.45;;;5.65;;
17175;SDS011;8703;48.996;9.594;2023-08-31T00:18:55;15.35;;;6.78;;
17175;SDS011;8703;48.996;9.594;2023-08-31T00:21:24;9.50;;;3.22;;
17175;SDS011;8703;48.996;9.594;2023-08-31T00:23:51;11.07;;;4.57;;
17175;SDS011;8703;48.996;9.594;2023-08-31T00:26:19;8.77;;;6.35;;
17175;SDS011;8703;48.996;9.594;2023-08-31T00:28:49;14.00;;;4.30;;
17175;SDS011;8703;48.996;9.594;2023-08-31T00:31:16;9.75;;;3.55;;
17175;SDS011;8703;48.996;9.594;2023-08-31T00:33:44;8.05;;;3.10;;
17175;SDS011;8703;48.996;9.594;2023-08-31T00:36:11;21.23;;;3.97;;
17175;SDS011;8703;48.996;9.594;2023-08-31T00:38:38;13.73;;;3.85;;
17175;SDS011;8703;48.996;9.594;2023-08-31T00:41:06;12.98;;;3.60;;
17175;SDS011;8703;48.996;9.594;2023-08-31T00:43:33;8.30;;;3.65;;
17175;SDS011;8703;48.996;9.594;2023-08-31T00:46:02;9.80;;;3.70;;
17175;SDS011;8703;48.996;9.594;2023-08-31T00:48:29;11.52;;;3.60;;
17175;SDS011;8703;48.996;9.594;2023-08-31T00:50:57;11.35;;;3.85;;
17175;SDS011;8703;48.996;9.594;2023-08-31T00:53:26;11.70;;;3.60;;
17175;SDS011;8703;48.996;9.594;2023-08-31T00:55:53;10.48;;;3.65;;
17175;SDS011;8703;48.996;9.594;2023-08-31T00:58:21;7.57;;;3.13;;
17175;SDS011;8703;48.996;9.594;2023-08-31T01:00:50;10.70;;;3.35;;
17175;SDS011;8703;48.996;9.594;2023-08-31T01:03:27;7.05;;;3.00;;
17175;SDS011;8703;48.996;9.594;2023-08-31T01:06:02;15.10;;;3.85;;
17175;SDS011;8703;48.996;9.594;2023-08-31T01:08:37;10.70;;;3.45;;
17175;SDS011;8703;48.996;9.594;2023-08-31T01:11:12;7.55;;;3.35;;
17175;SDS011;8703;48.996;9.594;2023-08-31T01:13:44;12.60;;;3.50;;
17175;SDS011;8703;48.996;9.594;2023-08-31T01:16:16;19.98;;;3.75;;
17175;SDS011;8703;48.996;9.594;2023-08-31T01:18:46;6.50;;;3.58;;
17175;SDS011;8703;48.996;9.594;2023-08-31T01:21:17;9.32;;;3.53;;
17175;SDS011;8703;48.996;9.594;2023-08-31T01:23:52;34.67;;;4.82;;
17175;SDS011;8703;48.996;9.594;2023-08-31T01:26:20;12.32;;;4.07;;
17175;SDS011;8703;48.996;9.594;2023-08-31T01:28:48;10.70;;;3.72;;
17175;SDS011;8703;48.996;9.594;2023-08-31T01:31:16;13.40;;;3.30;;
17175;SDS011;8703;48.996;9.594;2023-08-31T01:33:43;24.00;;;4.68;;
17175;SDS011;8703;48.996;9.594;2023-08-31T01:36:12;25.63;;;4.03;;
17175;SDS011;8703;48.996;9.594;2023-08-31T01:38:45;11.85;;;3.80;;
17175;SDS011;8703;48.996;9.594;2023-08-31T01:41:16;11.80;;;3.72;;
17175;SDS011;8703;48.996;9.594;2023-08-31T01:43:45;11.53;;;3.97;;
17175;SDS011;8703;48.996;9.594;2023-08-31T01:46:15;10.60;;;4.13;;
17175;SDS011;8703;48.996;9.594;2023-08-31T01:48:43;14.60;;;4.67;;
17175;SDS011;8703;48.996;9.594;2023-08-31T01:51:10;5.20;;;3.40;;
17175;SDS011;8703;48.996;9.594;2023-08-31T01:53:38;11.73;;;3.90;;
17175;SDS011;8703;48.996;9.594;2023-08-31T01:56:05;5.97;;;3.72;;
17175;SDS011;8703;48.996;9.594;2023-08-31T01:58:34;15.73;;;4.78;;
17175;SDS011;8703;48.996;9.594;2023-08-31T02:01:01;20.88;;;3.88;;
17175;SDS011;8703;48.996;9.594;2023-08-31T02:03:29;15.93;;;4.00;;
17175;SDS011;8703;48.996;9.594;2023-08-31T02:05:56;36.92;;;4.80;;
17175;SDS011;8703;48.996;9.594;2023-08-31T02:08:23;7.10;;;4.32;;
17175;SDS011;8703;48.996;9.594;2023-08-31T02:10:51;14.90;;;3.97;;
17175;SDS011;8703;48.996;9.594;2023-08-31T02:13:19;8.63;;;4.50;;
17175;SDS011;8703;48.996;9.594;2023-08-31T02:15:50;21.75;;;4.03;;
17175;SDS011;8703;48.996;9.594;2023-08-31T02:18:18;14.20;;;4.68;;
17175;SDS011;8703;48.996;9.594;2023-08-31T02:20:46;14.75;;;4.90;;
17175;SDS011;8703;48.996;9.594;2023-08-31T02:23:13;16.80;;;5.25;;
17175;SDS011;8703;48.996;9.594;2023-08-31T02:25:40;49.35;;;7.05;;
17175;SDS011;8703;48.996;9.594;2023-08-31T02:28:08;10.23;;;5.30;;
17175;SDS011;8703;48.996;9.594;2023-08-31T02:30:36;10.97;;;4.93;;
17175;SDS011;8703;48.996;9.594;2023-08-31T02:33:05;11.47;;;5.00;;
17175;SDS011;8703;48.996;9.594;2023-08-31T02:35:32;17.45;;;5.50;;
17175;SDS011;8703;48.996;9.594;2023-08-31T02:37:59;21.85;;;5.93;;
17175;SDS011;8703;48.996;9.594;2023-08-31T02:40:27;36.60;;;7.10;;
17175;SDS011;8703;48.996;9.594;2023-08-31T02:42:54;17.13;;;6.67;;
17175;SDS011;8703;48.996;9.594;2023-08-31T02:45:22;12.32;;;6.70;;
17175;SDS011;8703;48.996;9.594;2023-08-31T02:47:49;16.55;;;6.68;;
17175;SDS011;8703;48.996;9.594;2023-08-31T02:50:18;23.95;;;6.88;;
17175;SDS011;8703;48.996;9.594;2023-08-31T02:52:45;11.77;;;6.53;;
17175;SDS011;8703;48.996;9.594;2023-08-31T02:55:13;66.43;;;9.38;;
17175;SDS011;8703;48.996;9.594;2023-08-31T02:57:40;15.45;;;5.70;;
17175;SDS011;8703;48.996;9.594;2023-08-31T03:00:08;34.28;;;6.25;;
17175;SDS011;8703;48.996;9.594;2023-08-31T03:02:38;72.03;;;7.93;;
17175;SDS011;8703;48.996;9.594;2023-08-31T03:05:05;17.30;;;5.75;;
17175;SDS011;8703;48.996;9.594;2023-08-31T03:07:34;13.63;;;5.75;;
17175;SDS011;8703;48.996;9.594;2023-08-31T03:10:02;25.65;;;6.00;;
17175;SDS011;8703;48.996;9.594;2023-08-31T03:12:29;42.90;;;6.72;;
17175;SDS011;8703;48.996;9.594;2023-08-31T03:14:57;21.27;;;5.30;;
17175;SDS011;8703;48.996;9.594;2023-08-31T03:17:24;13.75;;;4.65;;
17175;SDS011;8703;48.996;9.594;2023-08-31T03:19:51;43.08;;;6.28;;
17175;SDS011;8703;48.996;9.594;2023-08-31T03:22:19;7.60;;;4.53;;
17175;SDS011;8703;48.996;9.594;2023-08-31T03:24:47;9.32;;;4.68;;
17175;SDS011;8703;48.996;9.594;2023-08-31T03:27:15;11.77;;;4.80;;
17175;SDS011;8703;48.996;9.594;2023-08-31T03:29:42;6.15;;;4.15;;
17175;SDS011;8703;48.996;9.594;2023-08-31T03:32:09;20.87;;;4.90;;
17175;SDS011;8703;48.996;9.594;2023-08-31T03:34:37;37.63;;;5.33;;
17175;SDS011;8703;48.996;9.594;2023-08-31T03:37:04;10.93;;;4.82;;
17175;SDS011;8703;48.996;9.594;2023-08-31T03:39:32;11.57;;;4.55;;
17175;SDS011;8703;48.996;9.594;2023-08-31T03:42:00;12.82;;;4.30;;
17175;SDS011;8703;48.996;9.594;2023-08-31T03:44:28;7.47;;;4.47;;
17175;SDS011;8703;48.996;9.594;2023-08-31T03:46:55;36.27;;;5.03;;
17175;SDS011;8703;48.996;9.594;2023-08-31T03:49:22;25.33;;;7.00;;
17175;SDS011;8703;48.996;9.594;2023-08-31T03:51:50;22.67;;;4.43;;
17175;SDS011;8703;48.996;9.594;2023-08-31T03:54:18;60.08;;;5.75;;
17175;SDS011;8703;48.996;9.594;2023-08-31T03:56:46;9.77;;;4.22;;
17175;SDS011;8703;48.996;9.594;2023-08-31T03:59:14;39.80;;;5.70;;
17175;SDS011;8703;48.996;9.594;2023-08-31T04:01:42;8.32;;;5.20;;
17175;SDS011;8703;48.996;9.594;2023-08-31T04:04:09;12.88;;;4.93;;
17175;SDS011;8703;48.996;9.594;2023-08-31T04:06:36;9.83;;;4.60;;
17175;SDS011;8703;48.996;9.594;2023-08-31T04:09:04;16.60;;;5.47;;
17175;SDS011;8703;48.996;9.594;2023-08-31T04:11:31;31.90;;;5.67;;
17175;SDS011;8703;48.996;9.594;2023-08-31T04:13:59;8.43;;;5.10;;
17175;SDS011;8703;48.996;9.594;2023-08-31T04:16:28;17.97;;;4.90;;
17175;SDS011;8703;48.996;9.594;2023-08-31T04:18:55;8.73;;;4.57;;
17175;SDS011;8703;48.996;9.594;2023-08-31T04:21:22;37.35;;;6.00;;
17175;SDS011;8703;48.996;9.594;2023-08-31T04:23:50;36.10;;;5.07;;
17175;SDS011;8703;48.996;9.594;2023-08-31T04:26:17;35.78;;;5.72;;
17175;SDS011;8703;48.996;9.594;2023-08-31T04:28:45;6.57;;;3.95;;
17175;SDS011;8703;48.996;9.594;2023-08-31T04:31:13;13.38;;;4.53;;
17175;SDS011;8703;48.996;9.594;2023-08-31T04:33:41;8.97;;;4.40;;
17175;SDS011;8703;48.996;9.594;2023-08-31T04:36:09;16.02;;;4.55;;
17175;SDS011;8703;48.996;9.594;2023-08-31T04:38:37;8.45;;;4.10;;
17175;SDS011;8703;48.996;9.594;2023-08-31T04:41:04;16.35;;;5.25;;
17175;SDS011;8703;48.996;9.594;2023-08-31T04:43:32;8.00;;;4.40;;
17175;SDS011;8703;48.996;9.594;2023-08-31T04:45:59;28.00;;;4.87;;
17175;SDS011;8703;48.996;9.594;2023-08-31T04:48:28;26.60;;;4.65;;
17175;SDS011;8703;48.996;9.594;2023-08-31T04:50:57;34.58;;;5.53;;
17175;SDS011;8703;48.996;9.594;2023-08-31T04:53:25;29.52;;;4.97;;
17175;SDS011;8703;48.996;9.594;2023-08-31T04:55:52;7.07;;;3.70;;
17175;SDS011;8703;48.996;9.594;2023-08-31T04:58:20;26.33;;;4.97;;
17175;SDS011;8703;48.996;9.594;2023-08-31T05:00:47;5.90;;;3.97;;
17175;SDS011;8703;48.996;9.594;2023-08-31T05:03:15;11.70;;;3.90;;
17175;SDS011;8703;48.996;9.594;2023-08-31T05:05:42;6.47;;;3.50;;
17175;SDS011;8703;48.996;9.594;2023-08-31T05:08:11;62.90;;;4.87;;
17175;SDS011;8703;48.996;9.594;2023-08-31T05:10:39;28.40;;;4.63;;
17175;SDS011;8703;48.996;9.594;2023-08-31T05:13:06;38.65;;;5.03;;
17175;SDS011;8703;48.996;9.594;2023-08-31T05:15:34;24.45;;;4.38;;
17175;SDS011;8703;48.996;9.594;2023-08-31T05:18:01;14.17;;;4.30;;
17175;SDS011;8703;48.996;9.594;2023-08-31T05:20:29;7.13;;;4.07;;
17175;SDS011;8703;48.996;9.594;2023-08-31T05:22:57;6.20;;;3.80;;
17175;SDS011;8703;48.996;9.594;2023-08-31T05:25:26;121.23;;;7.00;;
17175;SDS011;8703;48.996;9.594;2023-08-31T05:27:53;33.77;;;5.07;;
17175;SDS011;8703;48.996;9.594;2023-08-31T05:30:20;6.05;;;3.80;;
17175;SDS011;8703;48.996;9.594;2023-08-31T05:32:48;33.13;;;5.07;;
17175;SDS011;8703;48.996;9.594;2023-08-31T05:35:15;17.23;;;4.00;;
17175;SDS011;8703;48.996;9.594;2023-08-31T05:37:43;7.03;;;3.72;;
17175;SDS011;8703;48.996;9.594;2023-08-31T05:40:10;7.57;;;3.47;;
17175;SDS011;8703;48.996;9.594;2023-08-31T05:42:40;12.43;;;3.87;;
17175;SDS011;8703;48.996;9.594;2023-08-31T05:45:06;7.68;;;3.40;;
17175;SDS011;8703;48.996;9.594;2023-08-31T05:47:34;6.93;;;4.20;;
17175;SDS011;8703;48.996;9.594;2023-08-31T05:50:03;23.15;;;4.03;;
17175;SDS011;8703;48.996;9.594;2023-08-31T05:52:31;15.93;;;4.25;;
17175;SDS011;8703;48.996;9.594;2023-08-31T05:54:59;7.10;;;3.57;;
17175;SDS011;8703;48.996;9.594;2023-08-31T05:57:26;22.90;;;4.30;;
17175;SDS011;8703;48.996;9.594;2023-08-31T05:59:55;16.77;;;3.97;;
17175;SDS011;8703;48.996;9.594;2023-08-31T06:02:22;6.13;;;3.70;;
17175;SDS011;8703;48.996;9.594;2023-08-31T06:04:50;23.83;;;7.43;;
17175;SDS011;8703;48.996;9.594;2023-08-31T06:07:17;56.65;;;6.28;;
17175;SDS011;8703;48.996;9.594;2023-08-31T06:09:44;6.45;;;3.80;;
17175;SDS011;8703;48.996;9.594;2023-08-31T06:12:13;14.65;;;4.20;;
17175;SDS011;8703;48.996;9.594;2023-08-31T06:14:40;25.35;;;4.53;;
17175;SDS011;8703;48.996;9.594;2023-08-31T06:17:09;17.52;;;3.80;;
17175;SDS011;8703;48.996;9.594;2023-08-31T06:19:38;15.85;;;3.80;;
17175;SDS011;8703;48.996;9.594;2023-08-31T06:22:06;14.40;;;3.67;;
17175;SDS011;8703;48.996;9.594;2023-08-31T06:24:33;8.30;;;3.53;;
17175;SDS011;8703;48.996;9.594;2023-08-31T06:27:02;8.57;;;3.17;;
17175;SDS011;8703;48.996;9.594;2023-08-31T06:29:29;13.20;;;3.83;;
17175;SDS011;8703;48.996;9.594;2023-08-31T06:31:57;11.57;;;3.03;;
17175;SDS011;8703;48.996;9.594;2023-08-31T06:34:25;17.95;;;3.50;;
17175;SDS011;8703;48.996;9.594;2023-08-31T06:36:53;9.23;;;3.08;;
17175;SDS011;8703;48.996;9.594;2023-08-31T06:39:23;40.53;;;4.00;;
17175;SDS011;8703;48.996;9.594;2023-08-31T06:41:50;16.08;;;3.50;;
17175;SDS011;8703;48.996;9.594;2023-08-31T06:44:17;5.63;;;3.08;;
17175;SDS011;8703;48.996;9.594;2023-08-31T06:46:45;10.68;;;3.00;;
17175;SDS011;8703;48.996;9.594;2023-08-31T06:49:12;27.33;;;3.55;;
17175;SDS011;8703;48.996;9.594;2023-08-31T06:51:41;8.82;;;2.50;;
17175;SDS011;8703;48.996;9.594;2023-08-31T06:54:08;9.65;;;2.70;;
17175;SDS011;8703;48.996;9.594;2023-08-31T06:56:36;9.38;;;3.97;;
17175;SDS011;8703;48.996;9.594;2023-08-31T06:59:03;7.13;;;2.50;;
17175;SDS011;8703;48.996;9.594;2023-08-31T07:01:31;4.78;;;2.42;;
17175;SDS011;8703;48.996;9.594;2023-08-31T07:03:58;8.07;;;3.17;;
17175;SDS011;8703;48.996;9.594;2023-08-31T07:06:26;13.93;;;2.78;;
17175;SDS011;8703;48.996;9.594;2023-08-31T07:08:55;7.22;;;2.70;;
17175;SDS011;8703;48.996;9.594;2023-08-31T07:11:22;13.85;;;3.08;;
17175;SDS011;8703;48.996;9.594;2023-08-31T07:13:50;18.55;;;2.80;;
17175;SDS011;8703;48.996;9.594;2023-08-31T07:16:18;7.25;;;2.20;;
17175;SDS011;8703;48.996;9.594;2023-08-31T07:18:45;25.55;;;3.05;;
17175;SDS011;8703;48.996;9.594;2023-08-31T07:21:12;6.65;;;2.20;;
17175;SDS011;8703;48.996;9.594;2023-08-31T07:23:40;7.68;;;2.22;;
17175;SDS011;8703;48.996;9.594;2023-08-31T07:26:08;5.13;;;1.98;;
17175;SDS011;8703;48.996;9.594;2023-08-31T07:28:36;5.00;;;2.05;;
17175;SDS011;8703;48.996;9.594;2023-08-31T07:31:03;28.92;;;3.35;;
17175;SDS011;8703;48.996;9.594;2023-08-31T07:33:31;25.00;;;3.30;;
17175;SDS011;8703;48.996;9.594;2023-08-31T07:35:59;8.25;;;2.25;;
17175;SDS011;8703;48.996;9.594;2023-08-31T07:38:29;31.52;;;3.42;;
17175;SDS011;8703;48.996;9.594;2023-08-31T07:40:57;11.70;;;2.10;;
17175;SDS011;8703;48.996;9.594;2023-08-31T07:43:26;7.82;;;1.88;;
17175;SDS011;8703;48.996;9.594;2023-08-31T07:45:54;22.08;;;3.03;;
17175;SDS011;8703;48.996;9.594;2023-08-31T07:48:22;4.95;;;2.30;;
17175;SDS011;8703;48.996;9.594;2023-08-31T07:50:49;10.52;;;2.58;;
17175;SDS011;8703;48.996;9.594;2023-08-31T07:53:16;6.78;;;2.30;;
17175;SDS011;8703;48.996;9.594;2023-08-31T07:55:50;10.00;;;2.28;;
17175;SDS011;8703;48.996;9.594;2023-08-31T07:58:19;6.20;;;2.50;;
17175;SDS011;8703;48.996;9.594;2023-08-31T08:00:48;13.63;;;2.35;;
17175;SDS011;8703;48.996;9.594;2023-08-31T08:03:18;10.70;;;2.40;;
17175;SDS011;8703;48.996;9.594;2023-08-31T08:05:45;6.68;;;2.40;;
17175;SDS011;8703;48.996;9.594;2023-08-31T08:08:13;13.20;;;2.30;;
17175;SDS011;8703;48.996;9.594;2023-08-31T08:10:40;13.45;;;2.70;;
17175;SDS011;8703;48.996;9.594;2023-08-31T08:13:08;19.38;;;2.90;;
17175;SDS011;8703;48.996;9.594;2023-08-31T08:15:37;4.90;;;2.10;;
17175;SDS011;8703;48.996;9.594;2023-08-31T08:18:06;18.65;;;2.67;;
17175;SDS011;8703;48.996;9.594;2023-08-31T08:20:34;8.50;;;2.63;;
17175;SDS011;8703;48.996;9.594;2023-08-31T08:23:01;9.43;;;2.45;;
17175;SDS011;8703;48.996;9.594;2023-08-31T08:25:28;13.00;;;2.65;;
17175;SDS011;8703;48.996;9.594;2023-08-31T08:27:56;5.15;;;2.00;;
17175;SDS011;8703;48.996;9.594;2023-08-31T08:30:23;17.40;;;2.50;;
17175;SDS011;8703;48.996;9.594;2023-08-31T08:32:51;9.00;;;2.22;;
17175;SDS011;8703;48.996;9.594;2023-08-31T08:35:19;10.27;;;2.45;;
17175;SDS011;8703;48.996;9.594;2023-08-31T08:37:47;46.10;;;3.05;;
17175;SDS011;8703;48.996;9.594;2023-08-31T08:40:14;10.45;;;2.30;;
17175;SDS011;8703;48.996;9.594;2023-08-31T08:42:42;9.85;;;2.22;;
17175;SDS011;8703;48.996;9.594;2023-08-31T08:45:12;8.70;;;2.28;;
17175;SDS011;8703;48.996;9.594;2023-08-31T08:47:42;9.88;;;2.35;;
17175;SDS011;8703;48.996;9.594;2023-08-31T08:50:13;7.70;;;2.10;;
17175;SDS011;8703;48.996;9.594;2023-08-31T08:52:42;9.75;;;2.38;;
17175;SDS011;8703;48.996;9.594;2023-08-31T08:55:09;26.88;;;3.15;;
17175;SDS011;8703;48.996;9.594;2023-08-31T08:57:37;10.82;;;2.00;;
17175;SDS011;8703;48.996;9.594;2023-08-31T09:00:05;10.10;;;2.00;;
17175;SDS011;8703;48.996;9.594;2023-08-31T09:02:33;17.90;;;2.60;;
17175;SDS011;8703;48.996;9.594;2023-08-31T09:05:01;10.05;;;1.85;;
17175;SDS011;8703;48.996;9.594;2023-08-31T09:07:29;10.35;;;2.05;;
17175;SDS011;8703;48.996;9.594;2023-08-31T09:10:00;22.92;;;2.25;;
17175;SDS011;8703;48.996;9.594;2023-08-31T09:12:28;14.25;;;2.38;;
17175;SDS011;8703;48.996;9.594;2023-08-31T09:14:56;17.77;;;2.42;;
17175;SDS011;8703;48.996;9.594;2023-08-31T09:17:24;8.65;;;1.80;;
17175;SDS011;8703;48.996;9.594;2023-08-31T09:19:58;3.00;;;1.50;;
17175;SDS011;8703;48.996;9.594;2023-08-31T09:22:27;7.75;;;1.85;;
17175;SDS011;8703;48.996;9.594;2023-08-31T09:24:55;7.90;;;2.40;;
17175;SDS011;8703;48.996;9.594;2023-08-31T09:27:24;11.43;;;2.53;;
17175;SDS011;8703;48.996;9.594;2023-08-31T09:29:53;12.70;;;1.80;;
17175;SDS011;8703;48.996;9.594;2023-08-31T09:32:21;5.93;;;1.60;;
17175;SDS011;8703;48.996;9.594;2023-08-31T09:34:48;6.03;;;1.85;;
17175;SDS011;8703;48.996;9.594;2023-08-31T09:37:16;8.93;;;1.80;;
17175;SDS011;8703;48.996;9.594;2023-08-31T09:39:43;22.83;;;2.17;;
17175;SDS011;8703;48.996;9.594;2023-08-31T09:42:11;4.85;;;1.70;;
17175;SDS011;8703;48.996;9.594;2023-08-31T09:44:44;4.78;;;2.00;;
17175;SDS011;8703;48.996;9.594;2023-08-31T09:47:12;6.28;;;1.90;;
17175;SDS011;8703;48.996;9.594;2023-08-31T09:49:41;4.07;;;1.60;;
17175;SDS011;8703;48.996;9.594;2023-08-31T09:52:09;5.47;;;1.80;;
17175;SDS011;8703;48.996;9.594;2023-08-31T09:54:37;3.00;;;1.77;;
17175;SDS011;8703;48.996;9.594;2023-08-31T09:57:04;7.43;;;1.70;;
17175;SDS011;8703;48.996;9.594;2023-08-31T09:59:32;4.03;;;1.40;;
17175;SDS011;8703;48.996;9.594;2023-08-31T10:02:02;3.17;;;1.67;;
17175;SDS011;8703;48.996;9.594;2023-08-31T10:04:29;6.80;;;1.95;;
17175;SDS011;8703;48.996;9.594;2023-08-31T10:06:58;6.32;;;1.70;;
17175;SDS011;8703;48.996;9.594;2023-08-31T10:09:25;4.15;;;1.45;;
17175;SDS011;8703;48.996;9.594;2023-08-31T10:11:54;3.20;;;1.50;;
17175;SDS011;8703;48.996;9.594;2023-08-31T10:14:22;4.53;;;1.60;;
17175;SDS011;8703;48.996;9.594;2023-08-31T10:16:49;5.35;;;1.40;;
17175;SDS011;8703;48.996;9.594;2023-08-31T10:19:20;4.95;;;1.80;;
17175;SDS011;8703;48.996;9.594;2023-08-31T10:21:47;7.75;;;1.80;;
17175;SDS011;8703;48.996;9.594;2023-08-31T10:24:15;5.88;;;1.67;;
17175;SDS011;8703;48.996;9.594;2023-08-31T10:26:42;4.55;;;1.92;;
17175;SDS011;8703;48.996;9.594;2023-08-31T10:29:24;5.15;;;1.92;;
17175;SDS011;8703;48.996;9.594;2023-08-31T10:31:54;4.57;;;1.67;;
17175;SDS011;8703;48.996;9.594;2023-08-31T10:34:35;5.35;;;1.85;;
17175;SDS011;8703;48.996;9.594;2023-08-31T10:37:03;6.85;;;1.90;;
17175;SDS011;8703;48.996;9.594;2023-08-31T10:39:47;10.13;;;1.95;;
17175;SDS011;8703;48.996;9.594;2023-08-31T10:42:14;5.75;;;1.92;;
17175;SDS011;8703;48.996;9.594;2023-08-31T10:44:42;4.38;;;1.77;;
17175;SDS011;8703;48.996;9.594;2023-08-31T10:47:09;5.85;;;2.00;;
17175;SDS011;8703;48.996;9.594;2023-08-31T10:49:38;5.13;;;1.73;;
17175;SDS011;8703;48.996;9.594;2023-08-31T10:52:18;6.75;;;2.00;;
17175;SDS011;8703;48.996;9.594;2023-08-31T10:54:46;3.88;;;1.70;;
17175;SDS011;8703;48.996;9.594;2023-08-31T10:57:15;3.85;;;1.65;;
17175;SDS011;8703;48.996;9.594;2023-08-31T10:59:46;3.30;;;1.75;;
17175;SDS011;8703;48.996;9.594;2023-08-31T11:02:28;3.05;;;1.65;;
17175;SDS011;8703;48.996;9.594;2023-08-31T11:05:00;3.45;;;1.58;;
17175;SDS011;8703;48.996;9.594;2023-08-31T11:07:31;3.30;;;2.03;;
17175;SDS011;8703;48.996;9.594;2023-08-31T11:10:10;2.90;;;1.60;;
17175;SDS011;8703;48.996;9.594;2023-08-31T11:12:39;2.95;;;1.45;;
17175;SDS011;8703;48.996;9.594;2023-08-31T11:15:07;5.15;;;1.80;;
17175;SDS011;8703;48.996;9.594;2023-08-31T11:17:37;4.57;;;1.73;;
17175;SDS011;8703;48.996;9.594;2023-08-31T11:20:07;5.35;;;2.03;;
17175;SDS011;8703;48.996;9.594;2023-08-31T11:22:38;3.63;;;1.52;;
17175;SDS011;8703;48.996;9.594;2023-08-31T11:25:06;3.55;;;1.60;;
17175;SDS011;8703;48.996;9.594;2023-08-31T11:27:34;3.60;;;1.63;;
17175;SDS011;8703;48.996;9.594;2023-08-31T11:30:02;3.75;;;1.60;;
17175;SDS011;8703;48.996;9.594;2023-08-31T11:32:30;5.07;;;1.60;;
17175;SDS011;8703;48.996;9.594;2023-08-31T11:34:57;3.78;;;1.55;;
17175;SDS011;8703;48.996;9.594;2023-08-31T11:37:27;2.78;;;1.40;;
17175;SDS011;8703;48.996;9.594;2023-08-31T11:39:55;3.85;;;1.45;;
17175;SDS011;8703;48.996;9.594;2023-08-31T11:42:22;4.32;;;1.52;;
17175;SDS011;8703;48.996;9.594;2023-08-31T11:44:51;4.10;;;1.45;;
17175;SDS011;8703;48.996;9.594;2023-08-31T11:47:19;6.20;;;1.90;;
17175;SDS011;8703;48.996;9.594;2023-08-31T11:49:47;5.03;;;1.63;;
17175;SDS011;8703;48.996;9.594;2023-08-31T11:52:15;5.30;;;1.70;;
17175;SDS011;8703;48.996;9.594;2023-08-31T11:54:43;4.70;;;1.60;;
17175;SDS011;8703;48.996;9.594;2023-08-31T11:57:11;3.88;;;2.10;;
17175;SDS011;8703;48.996;9.594;2023-08-31T11:59:40;5.70;;;1.85;;
17175;SDS011;8703;48.996;9.594;2023-08-31T12:02:08;4.35;;;1.90;;
17175;SDS011;8703;48.996;9.594;2023-08-31T12:04:41;4.88;;;1.90;;
17175;SDS011;8703;48.996;9.594;2023-08-31T12:07:09;6.65;;;2.00;;
17175;SDS011;8703;48.996;9.594;2023-08-31T12:09:37;4.18;;;1.70;;
17175;SDS011;8703;48.996;9.594;2023-08-31T12:12:06;5.50;;;1.90;;
17175;SDS011;8703;48.996;9.594;2023-08-31T12:14:36;2.83;;;1.58;;
17175;SDS011;8703;48.996;9.594;2023-08-31T12:17:06;5.70;;;2.00;;
17175;SDS011;8703;48.996;9.594;2023-08-31T12:19:36;3.85;;;1.95;;
17175;SDS011;8703;48.996;9.594;2023-08-31T12:22:04;5.78;;;2.10;;
17175;SDS011;8703;48.996;9.594;2023-08-31T12:24:37;5.97;;;1.70;;
17175;SDS011;8703;48.996;9.594;2023-08-31T12:27:06;4.20;;;1.90;;
17175;SDS011;8703;48.996;9.594;2023-08-31T12:29:34;4.53;;;1.65;;
17175;SDS011;8703;48.996;9.594;2023-08-31T12:32:01;5.03;;;1.92;;
17175;SDS011;8703;48.996;9.594;2023-08-31T12:34:30;5.10;;;1.88;;
17175;SDS011;8703;48.996;9.594;2023-08-31T12:36:57;4.05;;;1.90;;
17175;SDS011;8703;48.996;9.594;2023-08-31T12:39:27;3.70;;;1.80;;
17175;SDS011;8703;48.996;9.594;2023-08-31T12:41:55;4.13;;;1.80;;
17175;SDS011;8703;48.996;9.594;2023-08-31T12:44:23;6.00;;;2.00;;
17175;SDS011;8703;48.996;9.594;2023-08-31T12:46:51;4.75;;;1.90;;
17175;SDS011;8703;48.996;9.594;2023-08-31T12:49:19;4.85;;;1.83;;
17175;SDS011;8703;48.996;9.594;2023-08-31T12:51:48;6.80;;;2.00;;
17175;SDS011;8703;48.996;9.594;2023-08-31T12:54:16;5.50;;;2.13;;
17175;SDS011;8703;48.996;9.594;2023-08-31T12:56:44;5.38;;;1.95;;
17175;SDS011;8703;48.996;9.594;2023-08-31T12:59:11;5.80;;;2.10;;
17175;SDS011;8703;48.996;9.594;2023-08-31T13:01:40;6.82;;;2.30;;
17175;SDS011;8703;48.996;9.594;2023-08-31T13:04:07;5.75;;;1.90;;
17175;SDS011;8703;48.996;9.594;2023-08-31T13:06:35;5.75;;;1.90;;
17175;SDS011;8703;48.996;9.594;2023-08-31T13:09:02;5.70;;;1.90;;
17175;SDS011;8703;48.996;9.594;2023-08-31T13:11:31;4.90;;;2.08;;
17175;SDS011;8703;48.996;9.594;2023-08-31T13:13:58;4.18;;;1.70;;
17175;SDS011;8703;48.996;9.594;2023-08-31T13:16:25;3.60;;;1.63;;
17175;SDS011;8703;48.996;9.594;2023-08-31T13:18:54;7.85;;;2.03;;
17175;SDS011;8703;48.996;9.594;2023-08-31T13:21:22;5.65;;;1.75;;
17175;SDS011;8703;48.996;9.594;2023-08-31T13:23:49;4.97;;;1.77;;
17175;SDS011;8703;48.996;9.594;2023-08-31T13:26:16;5.55;;;2.00;;
17175;SDS011;8703;48.996;9.594;2023-08-31T13:28:44;5.82;;;2.20;;
17175;SDS011;8703;48.996;9.594;2023-08-31T13:31:11;5.78;;;2.00;;
17175;SDS011;8703;48.996;9.594;2023-08-31T13:33:38;4.70;;;1.90;;
17175;SDS011;8703;48.996;9.594;2023-08-31T13:36:07;4.10;;;1.88;;
17175;SDS011;8703;48.996;9.594;2023-08-31T13:38:35;6.35;;;2.10;;
17175;SDS011;8703;48.996;9.594;2023-08-31T13:41:02;3.53;;;1.75;;
17175;SDS011;8703;48.996;9.594;2023-08-31T13:43:29;5.47;;;1.88;;
17175;SDS011;8703;48.996;9.594;2023-08-31T13:45:57;5.35;;;1.90;;
17175;SDS011;8703;48.996;9.594;2023-08-31T13:48:24;6.47;;;2.08;;
17175;SDS011;8703;48.996;9.594;2023-08-31T13:50:51;4.55;;;2.17;;
17175;SDS011;8703;48.996;9.594;2023-08-31T13:53:20;5.57;;;2.05;;
17175;SDS011;8703;48.996;9.594;2023-08-31T13:55:47;4.72;;;1.80;;
17175;SDS011;8703;48.996;9.594;2023-08-31T13:58:15;6.40;;;2.15;;
17175;SDS011;8703;48.996;9.594;2023-08-31T14:00:42;4.90;;;2.10;;
17175;SDS011;8703;48.996;9.594;2023-08-31T14:03:10;4.03;;;1.90;;
17175;SDS011;8703;48.996;9.594;2023-08-31T14:05:37;3.90;;;1.90;;
17175;SDS011;8703;48.996;9.594;2023-08-31T14:08:04;5.47;;;2.05;;
17175;SDS011;8703;48.996;9.594;2023-08-31T14:10:33;5.90;;;2.03;;
17175;SDS011;8703;48.996;9.594;2023-08-31T14:13:05;4.80;;;1.98;;
17175;SDS011;8703;48.996;9.594;2023-08-31T14:15:32;6.20;;;1.88;;
17175;SDS011;8703;48.996;9.594;2023-08-31T14:17:59;3.05;;;1.80;;
17175;SDS011;8703;48.996;9.594;2023-08-31T14:20:27;6.22;;;2.33;;
17175;SDS011;8703;48.996;9.594;2023-08-31T14:22:54;5.35;;;2.00;;
17175;SDS011;8703;48.996;9.594;2023-08-31T14:25:22;4.45;;;1.80;;
17175;SDS011;8703;48.996;9.594;2023-08-31T14:27:52;4.47;;;1.88;;
17175;SDS011;8703;48.996;9.594;2023-08-31T14:30:19;5.40;;;1.92;;
17175;SDS011;8703;48.996;9.594;2023-08-31T14:32:46;7.22;;;2.00;;
17175;SDS011;8703;48.996;9.594;2023-08-31T14:35:14;5.70;;;2.25;;
17175;SDS011;8703;48.996;9.594;2023-08-31T14:37:41;4.13;;;1.77;;
17175;SDS011;8703;48.996;9.594;2023-08-31T14:40:09;4.38;;;1.80;;
17175;SDS011;8703;48.996;9.594;2023-08-31T14:42:37;3.88;;;1.67;;
17175;SDS011;8703;48.996;9.594;2023-08-31T14:45:06;6.57;;;2.13;;
17175;SDS011;8703;48.996;9.594;2023-08-31T14:47:34;3.38;;;1.80;;
17175;SDS011;8703;48.996;9.594;2023-08-31T14:50:01;5.53;;;2.10;;
17175;SDS011;8703;48.996;9.594;2023-08-31T14:52:30;3.88;;;1.85;;
17175;SDS011;8703;48.996;9.594;2023-08-31T14:54:57;4.63;;;2.17;;
17175;SDS011;8703;48.996;9.594;2023-08-31T14:57:25;5.00;;;1.70;;
17175;SDS011;8703;48.996;9.594;2023-08-31T14:59:52;5.82;;;2.03;;
17175;SDS011;8703;48.996;9.594;2023-08-31T15:02:24;6.72;;;2.03;;